sensor_id;sensor_type;location;lat;lon;timestamp;P1;durP1;ratioP1;P2;durP2;ratioP2
77938;SDS011;67136;47.546;21.630;2023-04-24T00:03:20;14.98;;;8.80;;
77938;SDS011;67136;47.546;21.630;2023-04-24T00:06:33;12.85;;;8.32;;
77938;SDS011;67136;47.546;21.630;2023-04-24T00:09:55;20.45;;;9.30;;
77938;SDS011;67136;47.546;21.630;2023-04-24T00:13:22;14.43;;;8.30;;
77938;SDS011;67136;47.546;21.630;2023-04-24T00:16:58;12.82;;;8.52;;
77938;SDS011;67136;47.546;21.630;2023-04-24T00:20:44;14.18;;;9.48;;
77938;SDS011;67136;47.546;21.630;2023-04-24T00:24:12;13.55;;;8.50;;
77938;SDS011;67136;47.546;21.630;2023-04-24T00:27:41;17.00;;;8.95;;
77938;SDS011;67136;47.546;21.630;2023-04-24T00:31:02;14.73;;;8.47;;
77938;SDS011;67136;47.546;21.630;2023-04-24T00:34:30;15.82;;;8.88;;
77938;SDS011;67136;47.546;21.630;2023-04-24T00:37:41;15.00;;;8.73;;
77938;SDS011;67136;47.546;21.630;2023-04-24T00:40:56;16.12;;;8.73;;
77938;SDS011;67136;47.546;21.630;2023-04-24T00:44:09;14.63;;;8.95;;
77938;SDS011;67136;47.546;21.630;2023-04-24T00:47:16;13.50;;;8.63;;
77938;SDS011;67136;47.546;21.630;2023-04-24T00:50:33;18.20;;;8.73;;
77938;SDS011;67136;47.546;21.630;2023-04-24T00:54:18;17.33;;;8.52;;
77938;SDS011;67136;47.546;21.630;2023-04-24T00:57:38;17.90;;;8.80;;
77938;SDS011;67136;47.546;21.630;2023-04-24T01:00:52;18.33;;;8.32;;
77938;SDS011;67136;47.546;21.630;2023-04-24T01:04:22;13.57;;;8.33;;
77938;SDS011;67136;47.546;21.630;2023-04-24T01:07:55;13.70;;;8.90;;
77938;SDS011;67136;47.546;21.630;2023-04-24T01:11:04;14.35;;;8.02;;
77938;SDS011;67136;47.546;21.630;2023-04-24T01:14:22;14.15;;;7.97;;
77938;SDS011;67136;47.546;21.630;2023-04-24T01:18:16;18.95;;;8.05;;
77938;SDS011;67136;47.546;21.630;2023-04-24T01:21:29;14.53;;;8.27;;
77938;SDS011;67136;47.546;21.630;2023-04-24T01:24:57;18.42;;;8.20;;
77938;SDS011;67136;47.546;21.630;2023-04-24T01:28:14;12.82;;;8.00;;
77938;SDS011;67136;47.546;21.630;2023-04-24T01:31:49;14.68;;;8.35;;
77938;SDS011;67136;47.546;21.630;2023-04-24T01:35:30;14.75;;;7.87;;
77938;SDS011;67136;47.546;21.630;2023-04-24T01:39:11;13.50;;;8.43;;
77938;SDS011;67136;47.546;21.630;2023-04-24T01:42:46;14.82;;;8.77;;
77938;SDS011;67136;47.546;21.630;2023-04-24T01:46:04;18.45;;;8.75;;
77938;SDS011;67136;47.546;21.630;2023-04-24T01:49:32;16.65;;;8.40;;
77938;SDS011;67136;47.546;21.630;2023-04-24T01:52:59;13.48;;;8.43;;
77938;SDS011;67136;47.546;21.630;2023-04-24T01:56:28;14.20;;;8.90;;
77938;SDS011;67136;47.546;21.630;2023-04-24T01:59:41;16.10;;;8.75;;
77938;SDS011;67136;47.546;21.630;2023-04-24T02:03:03;18.23;;;9.52;;
77938;SDS011;67136;47.546;21.630;2023-04-24T02:10:13;13.95;;;9.23;;
77938;SDS011;67136;47.546;21.630;2023-04-24T02:13:53;14.00;;;8.60;;
77938;SDS011;67136;47.546;21.630;2023-04-24T02:17:32;15.52;;;9.10;;
77938;SDS011;67136;47.546;21.630;2023-04-24T02:20:51;18.90;;;8.80;;
77938;SDS011;67136;47.546;21.630;2023-04-24T02:24:16;14.95;;;8.55;;
77938;SDS011;67136;47.546;21.630;2023-04-24T02:27:34;16.27;;;8.70;;
77938;SDS011;67136;47.546;21.630;2023-04-24T02:30:47;15.83;;;8.47;;
77938;SDS011;67136;47.546;21.630;2023-04-24T02:34:09;15.55;;;8.57;;
77938;SDS011;67136;47.546;21.630;2023-04-24T02:37:30;14.93;;;8.55;;
77938;SDS011;67136;47.546;21.630;2023-04-24T02:44:35;17.62;;;8.25;;
77938;SDS011;67136;47.546;21.630;2023-04-24T02:48:07;21.27;;;9.00;;
77938;SDS011;67136;47.546;21.630;2023-04-24T02:51:57;13.52;;;8.18;;
77938;SDS011;67136;47.546;21.630;2023-04-24T02:55:44;13.90;;;8.10;;
77938;SDS011;67136;47.546;21.630;2023-04-24T02:59:09;14.38;;;8.45;;
77938;SDS011;67136;47.546;21.630;2023-04-24T03:02:22;21.52;;;8.70;;
77938;SDS011;67136;47.546;21.630;2023-04-24T03:06:29;21.40;;;9.33;;
77938;SDS011;67136;47.546;21.630;2023-04-24T03:09:51;17.25;;;8.77;;
77938;SDS011;67136;47.546;21.630;2023-04-24T03:16:46;12.90;;;7.53;;
77938;SDS011;67136;47.546;21.630;2023-04-24T03:20:19;13.73;;;8.27;;
77938;SDS011;67136;47.546;21.630;2023-04-24T03:27:41;13.52;;;7.65;;
77938;SDS011;67136;47.546;21.630;2023-04-24T03:31:00;14.32;;;7.57;;
77938;SDS011;67136;47.546;21.630;2023-04-24T03:34:16;11.75;;;7.53;;
77938;SDS011;67136;47.546;21.630;2023-04-24T03:37:40;16.45;;;8.40;;
77938;SDS011;67136;47.546;21.630;2023-04-24T03:41:10;12.27;;;7.57;;
77938;SDS011;67136;47.546;21.630;2023-04-24T03:44:45;13.20;;;8.15;;
77938;SDS011;67136;47.546;21.630;2023-04-24T03:48:15;20.67;;;11.10;;
77938;SDS011;67136;47.546;21.630;2023-04-24T03:51:31;15.13;;;9.50;;
77938;SDS011;67136;47.546;21.630;2023-04-24T03:54:59;13.27;;;8.07;;
77938;SDS011;67136;47.546;21.630;2023-04-24T03:58:44;13.57;;;8.37;;
77938;SDS011;67136;47.546;21.630;2023-04-24T04:05:53;13.40;;;7.90;;
77938;SDS011;67136;47.546;21.630;2023-04-24T04:09:10;16.12;;;7.87;;
77938;SDS011;67136;47.546;21.630;2023-04-24T04:12:41;11.27;;;7.80;;
77938;SDS011;67136;47.546;21.630;2023-04-24T04:16:07;14.03;;;7.77;;
77938;SDS011;67136;47.546;21.630;2023-04-24T04:19:43;13.23;;;7.78;;
77938;SDS011;67136;47.546;21.630;2023-04-24T04:23:16;14.63;;;7.85;;
77938;SDS011;67136;47.546;21.630;2023-04-24T04:26:44;12.93;;;8.07;;
77938;SDS011;67136;47.546;21.630;2023-04-24T04:30:18;16.77;;;8.63;;
77938;SDS011;67136;47.546;21.630;2023-04-24T04:33:50;11.87;;;8.03;;
77938;SDS011;67136;47.546;21.630;2023-04-24T04:37:11;16.70;;;8.00;;
77938;SDS011;67136;47.546;21.630;2023-04-24T04:40:20;23.45;;;8.18;;
77938;SDS011;67136;47.546;21.630;2023-04-24T04:43:45;12.05;;;7.50;;
77938;SDS011;67136;47.546;21.630;2023-04-24T04:47:21;17.37;;;8.07;;
77938;SDS011;67136;47.546;21.630;2023-04-24T04:51:06;14.30;;;7.90;;
77938;SDS011;67136;47.546;21.630;2023-04-24T04:58:38;12.48;;;7.47;;
77938;SDS011;67136;47.546;21.630;2023-04-24T05:01:53;13.77;;;6.85;;
77938;SDS011;67136;47.546;21.630;2023-04-24T05:05:27;12.37;;;7.40;;
77938;SDS011;67136;47.546;21.630;2023-04-24T05:09:01;14.20;;;7.20;;
77938;SDS011;67136;47.546;21.630;2023-04-24T05:12:28;11.75;;;7.12;;
77938;SDS011;67136;47.546;21.630;2023-04-24T05:15:41;11.50;;;6.82;;
77938;SDS011;67136;47.546;21.630;2023-04-24T05:19:24;10.27;;;6.97;;
77938;SDS011;67136;47.546;21.630;2023-04-24T05:22:51;9.30;;;6.20;;
77938;SDS011;67136;47.546;21.630;2023-04-24T05:26:07;10.63;;;6.37;;
77938;SDS011;67136;47.546;21.630;2023-04-24T05:29:42;13.65;;;6.07;;
77938;SDS011;67136;47.546;21.630;2023-04-24T05:33:28;14.13;;;6.55;;
77938;SDS011;67136;47.546;21.630;2023-04-24T05:37:00;15.50;;;6.82;;
77938;SDS011;67136;47.546;21.630;2023-04-24T05:40:16;13.13;;;7.20;;
77938;SDS011;67136;47.546;21.630;2023-04-24T05:43:30;13.10;;;7.30;;
77938;SDS011;67136;47.546;21.630;2023-04-24T05:46:53;15.68;;;7.00;;
77938;SDS011;67136;47.546;21.630;2023-04-24T05:50:06;14.18;;;6.10;;
77938;SDS011;67136;47.546;21.630;2023-04-24T05:53:36;9.38;;;6.45;;
77938;SDS011;67136;47.546;21.630;2023-04-24T05:57:04;9.60;;;5.95;;
77938;SDS011;67136;47.546;21.630;2023-04-24T06:00:16;14.87;;;5.90;;
77938;SDS011;67136;47.546;21.630;2023-04-24T06:03:24;10.77;;;5.95;;
77938;SDS011;67136;47.546;21.630;2023-04-24T06:06:28;10.00;;;5.68;;
77938;SDS011;67136;47.546;21.630;2023-04-24T06:09:31;9.45;;;4.53;;
77938;SDS011;67136;47.546;21.630;2023-04-24T06:12:34;13.18;;;5.20;;
77938;SDS011;67136;47.546;21.630;2023-04-24T06:15:44;8.80;;;4.47;;
77938;SDS011;67136;47.546;21.630;2023-04-24T06:18:50;10.27;;;4.87;;
77938;SDS011;67136;47.546;21.630;2023-04-24T06:21:53;9.80;;;4.87;;
77938;SDS011;67136;47.546;21.630;2023-04-24T06:24:58;10.25;;;4.60;;
77938;SDS011;67136;47.546;21.630;2023-04-24T06:28:02;8.13;;;4.65;;
77938;SDS011;67136;47.546;21.630;2023-04-24T06:31:04;8.97;;;4.40;;
77938;SDS011;67136;47.546;21.630;2023-04-24T06:34:10;12.27;;;4.95;;
77938;SDS011;67136;47.546;21.630;2023-04-24T06:37:12;9.57;;;4.97;;
77938;SDS011;67136;47.546;21.630;2023-04-24T06:40:15;7.25;;;4.72;;
77938;SDS011;67136;47.546;21.630;2023-04-24T06:43:23;10.98;;;4.82;;
77938;SDS011;67136;47.546;21.630;2023-04-24T06:46:28;16.33;;;4.93;;
77938;SDS011;67136;47.546;21.630;2023-04-24T06:49:31;11.18;;;4.37;;
77938;SDS011;67136;47.546;21.630;2023-04-24T06:52:36;8.43;;;4.75;;
77938;SDS011;67136;47.546;21.630;2023-04-24T06:55:41;8.88;;;4.28;;
77938;SDS011;67136;47.546;21.630;2023-04-24T06:58:45;6.93;;;4.22;;
77938;SDS011;67136;47.546;21.630;2023-04-24T07:01:50;8.83;;;4.60;;
77938;SDS011;67136;47.546;21.630;2023-04-24T07:04:56;10.05;;;4.28;;
77938;SDS011;67136;47.546;21.630;2023-04-24T07:08:03;8.60;;;4.10;;
77938;SDS011;67136;47.546;21.630;2023-04-24T07:11:09;7.70;;;4.20;;
77938;SDS011;67136;47.546;21.630;2023-04-24T07:14:15;6.93;;;3.67;;
77938;SDS011;67136;47.546;21.630;2023-04-24T07:17:32;8.33;;;3.50;;
77938;SDS011;67136;47.546;21.630;2023-04-24T07:20:40;7.87;;;3.28;;
77938;SDS011;67136;47.546;21.630;2023-04-24T07:23:43;7.43;;;3.65;;
77938;SDS011;67136;47.546;21.630;2023-04-24T07:26:46;10.88;;;3.58;;
77938;SDS011;67136;47.546;21.630;2023-04-24T07:29:53;4.68;;;3.12;;
77938;SDS011;67136;47.546;21.630;2023-04-24T07:32:57;9.07;;;3.27;;
77938;SDS011;67136;47.546;21.630;2023-04-24T07:36:00;8.25;;;3.53;;
77938;SDS011;67136;47.546;21.630;2023-04-24T07:39:02;9.35;;;3.25;;
77938;SDS011;67136;47.546;21.630;2023-04-24T07:42:05;5.12;;;3.37;;
77938;SDS011;67136;47.546;21.630;2023-04-24T07:45:10;8.02;;;3.20;;
77938;SDS011;67136;47.546;21.630;2023-04-24T07:48:13;7.53;;;3.57;;
77938;SDS011;67136;47.546;21.630;2023-04-24T07:51:18;9.52;;;3.17;;
77938;SDS011;67136;47.546;21.630;2023-04-24T07:54:21;9.85;;;3.35;;
77938;SDS011;67136;47.546;21.630;2023-04-24T07:57:26;6.87;;;3.15;;
77938;SDS011;67136;47.546;21.630;2023-04-24T08:00:29;7.95;;;3.08;;
77938;SDS011;67136;47.546;21.630;2023-04-24T08:03:32;6.27;;;3.00;;
77938;SDS011;67136;47.546;21.630;2023-04-24T08:06:34;6.18;;;3.00;;
77938;SDS011;67136;47.546;21.630;2023-04-24T08:09:37;7.37;;;3.22;;
77938;SDS011;67136;47.546;21.630;2023-04-24T08:12:41;7.25;;;3.08;;
77938;SDS011;67136;47.546;21.630;2023-04-24T08:15:44;4.22;;;3.25;;
77938;SDS011;67136;47.546;21.630;2023-04-24T08:18:47;7.10;;;3.17;;
77938;SDS011;67136;47.546;21.630;2023-04-24T08:21:49;9.38;;;3.10;;
77938;SDS011;67136;47.546;21.630;2023-04-24T08:24:54;9.68;;;3.42;;
77938;SDS011;67136;47.546;21.630;2023-04-24T08:28:02;10.25;;;3.20;;
77938;SDS011;67136;47.546;21.630;2023-04-24T08:31:10;11.85;;;3.65;;
77938;SDS011;67136;47.546;21.630;2023-04-24T08:34:20;9.97;;;3.77;;
77938;SDS011;67136;47.546;21.630;2023-04-24T08:37:26;7.82;;;3.62;;
77938;SDS011;67136;47.546;21.630;2023-04-24T08:40:29;7.28;;;3.30;;
77938;SDS011;67136;47.546;21.630;2023-04-24T08:43:35;11.75;;;3.33;;
77938;SDS011;67136;47.546;21.630;2023-04-24T08:46:39;7.05;;;3.60;;
77938;SDS011;67136;47.546;21.630;2023-04-24T08:49:43;7.53;;;3.43;;
77938;SDS011;67136;47.546;21.630;2023-04-24T08:52:49;5.47;;;3.70;;
77938;SDS011;67136;47.546;21.630;2023-04-24T08:55:53;6.12;;;3.50;;
77938;SDS011;67136;47.546;21.630;2023-04-24T08:59:00;5.93;;;3.85;;
77938;SDS011;67136;47.546;21.630;2023-04-24T09:02:03;5.20;;;3.97;;
77938;SDS011;67136;47.546;21.630;2023-04-24T09:05:07;8.43;;;3.90;;
77938;SDS011;67136;47.546;21.630;2023-04-24T09:08:14;14.15;;;3.72;;
77938;SDS011;67136;47.546;21.630;2023-04-24T09:11:19;9.45;;;4.10;;
77938;SDS011;67136;47.546;21.630;2023-04-24T09:14:31;7.55;;;3.97;;
77938;SDS011;67136;47.546;21.630;2023-04-24T09:17:34;10.55;;;3.87;;
77938;SDS011;67136;47.546;21.630;2023-04-24T09:20:57;5.73;;;3.90;;
77938;SDS011;67136;47.546;21.630;2023-04-24T09:24:17;7.28;;;3.95;;
77938;SDS011;67136;47.546;21.630;2023-04-24T09:27:27;6.05;;;3.70;;
77938;SDS011;67136;47.546;21.630;2023-04-24T09:30:33;5.80;;;4.00;;
77938;SDS011;67136;47.546;21.630;2023-04-24T09:33:39;7.15;;;4.03;;
77938;SDS011;67136;47.546;21.630;2023-04-24T09:36:42;5.27;;;4.17;;
77938;SDS011;67136;47.546;21.630;2023-04-24T09:39:51;9.77;;;4.53;;
77938;SDS011;67136;47.546;21.630;2023-04-24T09:43:10;7.68;;;4.47;;
77938;SDS011;67136;47.546;21.630;2023-04-24T09:46:16;7.15;;;4.05;;
77938;SDS011;67136;47.546;21.630;2023-04-24T09:49:26;9.25;;;4.50;;
77938;SDS011;67136;47.546;21.630;2023-04-24T09:52:29;9.03;;;4.00;;
77938;SDS011;67136;47.546;21.630;2023-04-24T09:55:32;10.40;;;4.43;;
77938;SDS011;67136;47.546;21.630;2023-04-24T09:58:36;9.05;;;4.20;;
77938;SDS011;67136;47.546;21.630;2023-04-24T10:01:39;6.32;;;4.47;;
77938;SDS011;67136;47.546;21.630;2023-04-24T10:04:54;6.72;;;4.87;;
77938;SDS011;67136;47.546;21.630;2023-04-24T10:08:03;7.83;;;4.60;;
77938;SDS011;67136;47.546;21.630;2023-04-24T10:11:07;7.50;;;3.78;;
77938;SDS011;67136;47.546;21.630;2023-04-24T10:14:12;8.35;;;4.25;;
77938;SDS011;67136;47.546;21.630;2023-04-24T10:17:16;6.30;;;3.60;;
77938;SDS011;67136;47.546;21.630;2023-04-24T10:20:20;6.53;;;3.58;;
77938;SDS011;67136;47.546;21.630;2023-04-24T10:23:25;3.67;;;3.20;;
77938;SDS011;67136;47.546;21.630;2023-04-24T10:26:27;4.45;;;3.55;;
77938;SDS011;67136;47.546;21.630;2023-04-24T10:29:30;8.38;;;3.85;;
77938;SDS011;67136;47.546;21.630;2023-04-24T10:32:34;9.30;;;3.55;;
77938;SDS011;67136;47.546;21.630;2023-04-24T10:35:39;5.00;;;3.97;;
77938;SDS011;67136;47.546;21.630;2023-04-24T10:38:46;9.47;;;4.50;;
77938;SDS011;67136;47.546;21.630;2023-04-24T10:41:55;5.50;;;4.10;;
77938;SDS011;67136;47.546;21.630;2023-04-24T10:45:06;10.55;;;4.60;;
77938;SDS011;67136;47.546;21.630;2023-04-24T10:48:26;6.87;;;5.12;;
77938;SDS011;67136;47.546;21.630;2023-04-24T10:51:45;9.00;;;4.95;;
77938;SDS011;67136;47.546;21.630;2023-04-24T10:54:59;6.77;;;4.90;;
77938;SDS011;67136;47.546;21.630;2023-04-24T10:58:06;10.52;;;5.65;;
77938;SDS011;67136;47.546;21.630;2023-04-24T11:01:09;11.45;;;5.45;;
77938;SDS011;67136;47.546;21.630;2023-04-24T11:04:30;8.02;;;6.18;;
77938;SDS011;67136;47.546;21.630;2023-04-24T11:11:18;10.10;;;6.90;;
77938;SDS011;67136;47.546;21.630;2023-04-24T11:14:25;10.85;;;7.62;;
77938;SDS011;67136;47.546;21.630;2023-04-24T11:17:36;13.68;;;8.02;;
77938;SDS011;67136;47.546;21.630;2023-04-24T11:20:43;13.68;;;7.65;;
77938;SDS011;67136;47.546;21.630;2023-04-24T11:23:54;13.48;;;9.25;;
77938;SDS011;67136;47.546;21.630;2023-04-24T11:26:59;11.47;;;7.67;;
77938;SDS011;67136;47.546;21.630;2023-04-24T11:30:06;10.85;;;8.05;;
77938;SDS011;67136;47.546;21.630;2023-04-24T11:33:12;13.68;;;7.43;;
77938;SDS011;67136;47.546;21.630;2023-04-24T11:36:24;12.60;;;8.13;;
77938;SDS011;67136;47.546;21.630;2023-04-24T11:39:36;12.27;;;8.40;;
77938;SDS011;67136;47.546;21.630;2023-04-24T11:42:42;10.03;;;7.53;;
77938;SDS011;67136;47.546;21.630;2023-04-24T11:45:49;10.40;;;7.65;;
77938;SDS011;67136;47.546;21.630;2023-04-24T11:48:52;12.98;;;8.45;;
77938;SDS011;67136;47.546;21.630;2023-04-24T11:51:56;14.23;;;8.27;;
77938;SDS011;67136;47.546;21.630;2023-04-24T11:55:02;14.15;;;8.73;;
77938;SDS011;67136;47.546;21.630;2023-04-24T11:58:35;13.03;;;8.93;;
77938;SDS011;67136;47.546;21.630;2023-04-24T12:01:45;13.32;;;8.80;;
77938;SDS011;67136;47.546;21.630;2023-04-24T12:04:55;13.35;;;8.82;;
77938;SDS011;67136;47.546;21.630;2023-04-24T12:07:58;12.73;;;8.23;;
77938;SDS011;67136;47.546;21.630;2023-04-24T12:11:06;11.57;;;8.75;;
77938;SDS011;67136;47.546;21.630;2023-04-24T12:14:18;11.37;;;7.87;;
77938;SDS011;67136;47.546;21.630;2023-04-24T12:17:25;11.12;;;8.02;;
77938;SDS011;67136;47.546;21.630;2023-04-24T12:20:31;10.52;;;7.70;;
77938;SDS011;67136;47.546;21.630;2023-04-24T12:23:35;12.98;;;8.40;;
77938;SDS011;67136;47.546;21.630;2023-04-24T12:26:38;10.63;;;8.43;;
77938;SDS011;67136;47.546;21.630;2023-04-24T12:33:21;12.55;;;8.43;;
77938;SDS011;67136;47.546;21.630;2023-04-24T12:36:25;13.32;;;8.82;;
77938;SDS011;67136;47.546;21.630;2023-04-24T12:39:28;12.75;;;8.27;;
77938;SDS011;67136;47.546;21.630;2023-04-24T12:42:46;12.73;;;8.45;;
77938;SDS011;67136;47.546;21.630;2023-04-24T12:45:51;12.53;;;8.20;;
77938;SDS011;67136;47.546;21.630;2023-04-24T12:48:56;10.82;;;8.25;;
77938;SDS011;67136;47.546;21.630;2023-04-24T12:52:00;12.23;;;8.43;;
77938;SDS011;67136;47.546;21.630;2023-04-24T12:55:03;12.52;;;9.23;;
77938;SDS011;67136;47.546;21.630;2023-04-24T12:58:17;13.05;;;8.38;;
77938;SDS011;67136;47.546;21.630;2023-04-24T13:01:24;12.30;;;8.07;;
77938;SDS011;67136;47.546;21.630;2023-04-24T13:04:29;12.23;;;9.10;;
77938;SDS011;67136;47.546;21.630;2023-04-24T13:07:35;11.20;;;8.10;;
77938;SDS011;67136;47.546;21.630;2023-04-24T13:10:42;11.85;;;9.05;;
77938;SDS011;67136;47.546;21.630;2023-04-24T13:13:48;12.27;;;9.20;;
77938;SDS011;67136;47.546;21.630;2023-04-24T13:16:51;11.77;;;8.97;;
77938;SDS011;67136;47.546;21.630;2023-04-24T13:20:01;13.15;;;8.98;;
77938;SDS011;67136;47.546;21.630;2023-04-24T13:23:07;16.08;;;8.93;;
77938;SDS011;67136;47.546;21.630;2023-04-24T13:26:19;13.15;;;9.45;;
77938;SDS011;67136;47.546;21.630;2023-04-24T13:29:27;12.95;;;8.88;;
77938;SDS011;67136;47.546;21.630;2023-04-24T13:32:31;11.77;;;8.27;;
77938;SDS011;67136;47.546;21.630;2023-04-24T13:35:36;14.23;;;9.32;;
77938;SDS011;67136;47.546;21.630;2023-04-24T13:38:38;14.18;;;9.77;;
77938;SDS011;67136;47.546;21.630;2023-04-24T13:41:43;13.20;;;9.45;;
77938;SDS011;67136;47.546;21.630;2023-04-24T13:44:50;14.35;;;9.30;;
77938;SDS011;67136;47.546;21.630;2023-04-24T13:47:58;13.70;;;8.97;;
77938;SDS011;67136;47.546;21.630;2023-04-24T13:51:07;12.95;;;9.40;;
77938;SDS011;67136;47.546;21.630;2023-04-24T13:54:12;13.27;;;9.75;;
77938;SDS011;67136;47.546;21.630;2023-04-24T13:57:16;13.18;;;8.88;;
77938;SDS011;67136;47.546;21.630;2023-04-24T14:00:25;13.25;;;9.48;;
77938;SDS011;67136;47.546;21.630;2023-04-24T14:03:33;14.73;;;8.77;;
77938;SDS011;67136;47.546;21.630;2023-04-24T14:06:43;18.45;;;9.63;;
77938;SDS011;67136;47.546;21.630;2023-04-24T14:09:50;13.73;;;8.80;;
77938;SDS011;67136;47.546;21.630;2023-04-24T14:12:58;12.93;;;9.02;;
77938;SDS011;67136;47.546;21.630;2023-04-24T14:16:06;11.60;;;8.43;;
77938;SDS011;67136;47.546;21.630;2023-04-24T14:19:11;14.77;;;8.73;;
77938;SDS011;67136;47.546;21.630;2023-04-24T14:22:26;12.27;;;8.45;;
77938;SDS011;67136;47.546;21.630;2023-04-24T14:25:34;17.23;;;9.27;;
77938;SDS011;67136;47.546;21.630;2023-04-24T14:28:40;15.50;;;9.18;;
77938;SDS011;67136;47.546;21.630;2023-04-24T14:31:46;13.70;;;8.70;;
77938;SDS011;67136;47.546;21.630;2023-04-24T14:34:54;12.90;;;7.97;;
77938;SDS011;67136;47.546;21.630;2023-04-24T14:38:01;13.98;;;8.65;;
77938;SDS011;67136;47.546;21.630;2023-04-24T14:41:07;12.52;;;8.43;;
77938;SDS011;67136;47.546;21.630;2023-04-24T14:44:17;13.00;;;8.95;;
77938;SDS011;67136;47.546;21.630;2023-04-24T14:47:25;11.15;;;8.48;;
77938;SDS011;67136;47.546;21.630;2023-04-24T14:50:27;10.03;;;7.73;;
77938;SDS011;67136;47.546;21.630;2023-04-24T14:53:34;15.05;;;8.30;;
77938;SDS011;67136;47.546;21.630;2023-04-24T14:56:39;12.93;;;8.50;;
77938;SDS011;67136;47.546;21.630;2023-04-24T14:59:45;11.50;;;7.62;;
77938;SDS011;67136;47.546;21.630;2023-04-24T15:02:51;9.07;;;6.93;;
77938;SDS011;67136;47.546;21.630;2023-04-24T15:05:56;9.70;;;7.77;;
77938;SDS011;67136;47.546;21.630;2023-04-24T15:09:01;14.23;;;7.93;;
77938;SDS011;67136;47.546;21.630;2023-04-24T15:12:04;14.18;;;7.97;;
77938;SDS011;67136;47.546;21.630;2023-04-24T15:15:10;9.98;;;7.43;;
77938;SDS011;67136;47.546;21.630;2023-04-24T15:18:16;12.50;;;8.10;;
77938;SDS011;67136;47.546;21.630;2023-04-24T15:21:22;10.77;;;7.53;;
77938;SDS011;67136;47.546;21.630;2023-04-24T15:24:28;9.07;;;7.25;;
77938;SDS011;67136;47.546;21.630;2023-04-24T15:27:40;10.88;;;8.05;;
77938;SDS011;67136;47.546;21.630;2023-04-24T15:30:48;12.35;;;8.43;;
77938;SDS011;67136;47.546;21.630;2023-04-24T15:33:50;12.00;;;8.20;;
77938;SDS011;67136;47.546;21.630;2023-04-24T15:36:53;10.93;;;8.23;;
77938;SDS011;67136;47.546;21.630;2023-04-24T15:43:21;12.00;;;8.38;;
77938;SDS011;67136;47.546;21.630;2023-04-24T15:46:25;14.20;;;8.60;;
77938;SDS011;67136;47.546;21.630;2023-04-24T15:49:31;12.65;;;9.02;;
77938;SDS011;67136;47.546;21.630;2023-04-24T15:52:40;11.80;;;8.17;;
77938;SDS011;67136;47.546;21.630;2023-04-24T15:55:42;13.77;;;9.35;;
77938;SDS011;67136;47.546;21.630;2023-04-24T15:58:48;11.68;;;9.30;;
77938;SDS011;67136;47.546;21.630;2023-04-24T16:01:51;14.07;;;9.40;;
77938;SDS011;67136;47.546;21.630;2023-04-24T16:04:55;11.75;;;8.98;;
77938;SDS011;67136;47.546;21.630;2023-04-24T16:08:00;12.80;;;9.40;;
77938;SDS011;67136;47.546;21.630;2023-04-24T16:11:06;13.35;;;9.95;;
77938;SDS011;67136;47.546;21.630;2023-04-24T16:14:15;14.38;;;9.27;;
77938;SDS011;67136;47.546;21.630;2023-04-24T16:17:23;14.00;;;10.40;;
77938;SDS011;67136;47.546;21.630;2023-04-24T16:20:30;16.77;;;10.18;;
77938;SDS011;67136;47.546;21.630;2023-04-24T16:23:36;12.77;;;9.57;;
77938;SDS011;67136;47.546;21.630;2023-04-24T16:26:44;13.32;;;9.95;;
77938;SDS011;67136;47.546;21.630;2023-04-24T16:29:49;12.93;;;9.57;;
77938;SDS011;67136;47.546;21.630;2023-04-24T16:32:55;14.32;;;10.00;;
77938;SDS011;67136;47.546;21.630;2023-04-24T16:36:00;14.35;;;10.32;;
77938;SDS011;67136;47.546;21.630;2023-04-24T16:39:08;14.93;;;9.80;;
77938;SDS011;67136;47.546;21.630;2023-04-24T16:42:14;15.93;;;9.88;;
77938;SDS011;67136;47.546;21.630;2023-04-24T16:45:20;14.25;;;10.15;;
77938;SDS011;67136;47.546;21.630;2023-04-24T16:48:28;14.23;;;10.18;;
77938;SDS011;67136;47.546;21.630;2023-04-24T16:51:31;12.98;;;9.63;;
77938;SDS011;67136;47.546;21.630;2023-04-24T16:54:41;12.57;;;9.40;;
77938;SDS011;67136;47.546;21.630;2023-04-24T17:04:54;13.68;;;10.10;;
77938;SDS011;67136;47.546;21.630;2023-04-24T17:07:59;13.18;;;10.25;;
77938;SDS011;67136;47.546;21.630;2023-04-24T17:11:08;14.20;;;10.33;;
77938;SDS011;67136;47.546;21.630;2023-04-24T17:14:11;16.27;;;11.02;;
77938;SDS011;67136;47.546;21.630;2023-04-24T17:17:16;17.02;;;10.85;;
77938;SDS011;67136;47.546;21.630;2023-04-24T17:20:26;15.60;;;10.07;;
77938;SDS011;67136;47.546;21.630;2023-04-24T17:23:36;23.45;;;11.77;;
77938;SDS011;67136;47.546;21.630;2023-04-24T17:26:45;17.00;;;12.63;;
77938;SDS011;67136;47.546;21.630;2023-04-24T17:30:02;19.77;;;11.35;;
77938;SDS011;67136;47.546;21.630;2023-04-24T17:33:13;16.62;;;12.00;;
77938;SDS011;67136;47.546;21.630;2023-04-24T17:36:22;18.05;;;11.70;;
77938;SDS011;67136;47.546;21.630;2023-04-24T17:39:36;21.10;;;12.32;;
77938;SDS011;67136;47.546;21.630;2023-04-24T17:42:49;15.70;;;11.90;;
77938;SDS011;67136;47.546;21.630;2023-04-24T17:46:06;15.98;;;12.77;;
77938;SDS011;67136;47.546;21.630;2023-04-24T17:49:11;18.42;;;13.05;;
77938;SDS011;67136;47.546;21.630;2023-04-24T17:52:26;18.42;;;12.65;;
77938;SDS011;67136;47.546;21.630;2023-04-24T17:55:30;19.52;;;13.02;;
77938;SDS011;67136;47.546;21.630;2023-04-24T17:58:38;19.77;;;12.10;;
77938;SDS011;67136;47.546;21.630;2023-04-24T18:01:48;16.58;;;12.02;;
77938;SDS011;67136;47.546;21.630;2023-04-24T18:04:56;16.62;;;12.25;;
77938;SDS011;67136;47.546;21.630;2023-04-24T18:08:04;18.08;;;12.73;;
77938;SDS011;67136;47.546;21.630;2023-04-24T18:11:10;16.98;;;12.18;;
77938;SDS011;67136;47.546;21.630;2023-04-24T18:14:15;18.53;;;12.57;;
77938;SDS011;67136;47.546;21.630;2023-04-24T18:17:31;16.17;;;12.45;;
77938;SDS011;67136;47.546;21.630;2023-04-24T18:20:34;17.37;;;12.73;;
77938;SDS011;67136;47.546;21.630;2023-04-24T18:23:42;18.40;;;12.60;;
77938;SDS011;67136;47.546;21.630;2023-04-24T18:26:59;16.58;;;12.18;;
77938;SDS011;67136;47.546;21.630;2023-04-24T18:30:11;20.53;;;12.47;;
77938;SDS011;67136;47.546;21.630;2023-04-24T18:33:15;16.75;;;12.63;;
77938;SDS011;67136;47.546;21.630;2023-04-24T18:36:21;20.15;;;12.73;;
77938;SDS011;67136;47.546;21.630;2023-04-24T18:39:30;17.02;;;11.30;;
77938;SDS011;67136;47.546;21.630;2023-04-24T18:42:41;18.35;;;12.40;;
77938;SDS011;67136;47.546;21.630;2023-04-24T18:45:49;16.37;;;11.53;;
77938;SDS011;67136;47.546;21.630;2023-04-24T18:48:55;17.25;;;12.13;;
77938;SDS011;67136;47.546;21.630;2023-04-24T18:52:28;19.25;;;12.57;;
77938;SDS011;67136;47.546;21.630;2023-04-24T18:55:32;15.45;;;11.57;;
77938;SDS011;67136;47.546;21.630;2023-04-24T18:58:36;18.20;;;12.23;;
77938;SDS011;67136;47.546;21.630;2023-04-24T19:01:52;19.03;;;12.07;;
77938;SDS011;67136;47.546;21.630;2023-04-24T19:04:58;16.10;;;11.80;;
77938;SDS011;67136;47.546;21.630;2023-04-24T19:08:06;16.75;;;12.35;;
77938;SDS011;67136;47.546;21.630;2023-04-24T19:11:21;20.00;;;13.60;;
77938;SDS011;67136;47.546;21.630;2023-04-24T19:14:27;19.73;;;13.93;;
77938;SDS011;67136;47.546;21.630;2023-04-24T19:17:33;19.03;;;13.47;;
77938;SDS011;67136;47.546;21.630;2023-04-24T19:20:38;21.67;;;14.05;;
77938;SDS011;67136;47.546;21.630;2023-04-24T19:23:49;19.42;;;13.52;;
77938;SDS011;67136;47.546;21.630;2023-04-24T19:27:03;20.77;;;13.52;;
77938;SDS011;67136;47.546;21.630;2023-04-24T19:30:13;22.05;;;14.13;;